createdAt,value
2023-01-07T00:01:44.792Z,9.20
2023-01-07T00:06:45.492Z,9.40
2023-01-07T00:11:46.242Z,9.00
2023-01-07T00:16:47.781Z,9.50
2023-01-07T00:21:47.456Z,10.00
2023-01-07T00:26:48.156Z,9.50
2023-01-07T00:31:48.950Z,9.60
2023-01-07T00:36:49.752Z,10.20
2023-01-07T00:41:50.415Z,10.30
2023-01-07T00:46:51.235Z,9.20
2023-01-07T00:51:52.054Z,9.00
2023-01-07T00:56:52.698Z,8.90
2023-01-07T01:01:53.538Z,8.10
2023-01-07T01:06:54.359Z,8.40
2023-01-07T01:11:55.659Z,7.60
2023-01-07T01:16:55.887Z,7.40
2023-01-07T01:21:56.638Z,7.10
2023-01-07T01:26:57.482Z,6.60
2023-01-07T01:31:58.137Z,6.40
2023-01-07T01:36:58.941Z,6.30
2023-01-07T01:41:59.669Z,6.30
2023-01-07T01:47:00.622Z,6.00
2023-01-07T01:52:00.855Z,6.40
2023-01-07T01:57:01.628Z,6.40
2023-01-07T02:02:02.606Z,6.00
2023-01-07T02:07:02.894Z,6.30
2023-01-07T02:12:04.192Z,6.20
2023-01-07T02:17:04.416Z,5.90
2023-01-07T02:22:05.153Z,6.10
2023-01-07T02:27:06.083Z,5.90
2023-01-07T02:32:06.731Z,5.80
2023-01-07T02:37:07.448Z,5.70
2023-01-07T02:42:08.177Z,5.90
2023-01-07T02:47:09.067Z,5.90
2023-01-07T02:52:09.748Z,5.80
2023-01-07T02:57:10.486Z,6.50
2023-01-07T03:02:11.233Z,6.30
2023-01-07T03:07:12.074Z,6.50
2023-01-07T03:12:12.761Z,6.60
2023-01-07T03:17:13.495Z,7.30
2023-01-07T03:22:14.203Z,7.60
2023-01-07T03:27:15.157Z,8.40
2023-01-07T03:32:15.819Z,9.40
2023-01-07T03:37:16.530Z,10.50
2023-01-07T03:42:17.378Z,11.70
2023-01-07T03:47:18.045Z,12.00
2023-01-07T03:52:18.758Z,13.50
2023-01-07T03:57:20.317Z,12.80
2023-01-07T04:02:20.049Z,12.80
2023-01-07T04:07:20.766Z,12.90
2023-01-07T04:12:21.517Z,12.60
2023-01-07T04:17:22.377Z,12.70
2023-01-07T04:22:23.040Z,13.20
2023-01-07T04:27:23.769Z,12.40
2023-01-07T04:32:24.714Z,13.50
2023-01-07T04:37:25.371Z,12.70
2023-01-07T04:42:26.084Z,12.30
2023-01-07T04:47:26.929Z,13.30
2023-01-07T04:52:27.637Z,12.70
2023-01-07T04:57:28.362Z,11.90
2023-01-07T05:02:29.201Z,11.80
2023-01-07T05:07:29.951Z,11.40
2023-01-07T05:12:30.676Z,11.20
2023-01-07T05:17:31.465Z,11.20
2023-01-07T05:22:32.312Z,11.70
2023-01-07T05:27:33.080Z,12.20
2023-01-07T05:32:40.808Z,11.80
2023-01-07T05:37:34.581Z,12.30
2023-01-07T05:42:35.240Z,14.30
2023-01-07T05:47:35.966Z,12.60
2023-01-07T05:52:36.738Z,12.40
2023-01-07T05:57:37.602Z,12.70
2023-01-07T06:02:38.265Z,12.90
2023-01-07T06:07:38.995Z,12.20
2023-01-07T06:12:39.711Z,12.60
2023-01-07T06:17:40.539Z,12.50
2023-01-07T06:22:41.186Z,12.30
2023-01-07T06:27:41.902Z,12.60
2023-01-07T06:32:42.548Z,12.00
2023-01-07T06:37:43.418Z,12.00
2023-01-07T06:42:44.056Z,11.80
2023-01-07T06:47:44.767Z,11.60
2023-01-07T06:52:45.481Z,10.80
2023-01-07T06:57:46.258Z,11.50
2023-01-07T07:02:46.986Z,10.60
2023-01-07T07:07:47.628Z,11.00
2023-01-07T07:12:48.271Z,11.00
2023-01-07T07:17:49.040Z,11.10
2023-01-07T07:22:49.674Z,11.40
2023-01-07T07:27:50.310Z,10.60
2023-01-07T07:32:50.951Z,9.70
2023-01-07T07:37:51.712Z,10.10
2023-01-07T07:43:10.436Z,10.20
2023-01-07T07:47:53.970Z,9.80
2023-01-07T07:52:53.668Z,9.30
2023-01-07T07:57:54.473Z,12.20
2023-01-07T08:02:55.139Z,9.10
2023-01-07T08:07:55.864Z,8.80
2023-01-07T08:12:56.507Z,8.80
2023-01-07T08:17:57.326Z,8.20
2023-01-07T08:22:58.025Z,8.20
2023-01-07T08:27:58.691Z,7.80
2023-01-07T08:32:59.343Z,7.10
2023-01-07T08:38:00.126Z,6.80
2023-01-07T08:43:00.737Z,6.90
2023-01-07T08:48:01.437Z,6.60
2023-01-07T08:53:02.237Z,6.90
2023-01-07T08:58:02.882Z,6.70
2023-01-07T09:03:03.531Z,6.10
2023-01-07T09:08:04.187Z,6.20
2023-01-07T09:13:05.119Z,7.60
2023-01-07T09:18:06.016Z,5.80
2023-01-07T09:23:06.648Z,5.60
2023-01-07T09:28:08.385Z,5.50
2023-01-07T09:33:08.056Z,5.20
2023-01-07T09:38:08.712Z,4.90
2023-01-07T09:43:09.530Z,5.10
2023-01-07T09:48:10.346Z,4.90
2023-01-07T09:53:10.985Z,5.10
2023-01-07T09:58:11.651Z,5.40
2023-01-07T10:03:12.350Z,4.90
2023-01-07T10:08:29.046Z,4.70
2023-01-07T10:13:14.545Z,5.80
2023-01-07T10:18:14.205Z,5.70
2023-01-07T10:23:14.879Z,5.00
2023-01-07T10:28:15.644Z,5.20
2023-01-07T10:33:16.270Z,5.00
2023-01-07T10:38:17.020Z,4.90
2023-01-07T10:43:17.777Z,4.70
2023-01-07T10:48:18.563Z,4.60
2023-01-07T10:53:19.443Z,4.30
2023-01-07T10:58:20.146Z,4.30
2023-01-07T11:03:20.802Z,4.50
2023-01-07T11:08:21.597Z,4.40
2023-01-07T11:13:22.321Z,3.80
2023-01-07T11:18:23.072Z,3.90
2023-01-07T11:23:23.723Z,6.00
2023-01-07T11:28:24.583Z,7.60
2023-01-07T11:34:01.979Z,9.00
2023-01-07T11:38:27.826Z,13.70
2023-01-07T11:43:33.591Z,15.50
2023-01-07T11:48:27.183Z,5.10
2023-01-07T11:53:27.842Z,4.30
2023-01-07T11:58:30.975Z,4.50
2023-01-07T12:03:29.615Z,4.00
2023-01-07T12:08:30.217Z,3.80
2023-01-07T12:13:30.870Z,4.40
2023-01-07T12:18:31.586Z,4.40
2023-01-07T12:23:32.396Z,3.60
2023-01-07T12:28:33.159Z,4.50
2023-01-07T12:33:33.849Z,3.00
2023-01-07T12:38:34.628Z,3.30
2023-01-07T12:43:35.264Z,2.30
2023-01-07T12:48:35.906Z,2.20
2023-01-07T12:53:36.574Z,2.10
2023-01-07T12:58:37.381Z,2.30
2023-01-07T13:03:37.975Z,2.50
2023-01-07T13:08:38.649Z,2.60
2023-01-07T13:13:39.312Z,2.10
2023-01-07T13:18:40.087Z,2.30
2023-01-07T13:23:40.771Z,2.40
2023-01-07T13:28:41.428Z,2.60
2023-01-07T13:33:42.091Z,2.30
2023-01-07T13:38:42.878Z,2.50
2023-01-07T13:43:43.498Z,2.40
2023-01-07T13:48:44.151Z,2.70
2023-01-07T13:53:44.883Z,2.70
2023-01-07T13:58:45.690Z,2.80
2023-01-07T14:03:46.310Z,2.60
2023-01-07T14:08:46.980Z,2.30
2023-01-07T14:13:47.642Z,2.70
2023-01-07T14:18:48.488Z,2.40
2023-01-07T14:23:49.111Z,2.70
2023-01-07T14:28:50.354Z,2.80
2023-01-07T14:33:50.528Z,3.10
2023-01-07T14:38:51.301Z,3.90
2023-01-07T14:43:51.897Z,2.80
2023-01-07T14:48:52.567Z,3.40
2023-01-07T14:53:53.230Z,2.80
2023-01-07T14:58:54.018Z,2.70
2023-01-07T15:03:54.722Z,3.80
2023-01-07T15:08:55.382Z,3.90
2023-01-07T15:13:56.055Z,3.90
2023-01-07T15:18:56.839Z,4.90
2023-01-07T15:23:57.525Z,5.40
2023-01-07T15:28:58.183Z,5.40
2023-01-07T15:33:58.851Z,6.10
2023-01-07T15:39:00.476Z,6.40
2023-01-07T15:44:00.113Z,5.90
2023-01-07T15:49:00.769Z,5.60
2023-01-07T15:54:01.512Z,5.40
2023-01-07T15:59:02.401Z,5.40
2023-01-07T16:04:03.061Z,4.50
2023-01-07T16:09:03.769Z,3.50
2023-01-07T16:14:04.498Z,4.30
2023-01-07T16:19:05.327Z,3.40
2023-01-07T16:24:05.974Z,3.20
2023-01-07T16:29:06.707Z,2.80
2023-01-07T16:34:07.410Z,3.00
2023-01-07T16:39:08.256Z,2.60
2023-01-07T16:44:08.926Z,2.80
2023-01-07T16:49:09.734Z,2.90
2023-01-07T16:54:10.448Z,3.10
2023-01-07T16:59:11.290Z,2.90
2023-01-07T17:04:11.954Z,3.00
2023-01-07T17:09:12.760Z,3.00
2023-01-07T17:14:13.553Z,3.20
2023-01-07T17:19:14.244Z,3.20
2023-01-07T17:24:14.945Z,3.70
2023-01-07T17:29:15.773Z,3.20
2023-01-07T17:34:16.431Z,3.00
2023-01-07T17:39:17.159Z,3.20
2023-01-07T17:44:25.096Z,3.60
2023-01-07T17:49:18.715Z,3.50
2023-01-07T17:54:19.516Z,4.80
2023-01-07T17:59:20.225Z,5.40
2023-01-07T18:04:21.064Z,5.80
2023-01-07T18:09:21.756Z,5.20
2023-01-07T18:14:22.605Z,5.40
2023-01-07T18:19:23.545Z,4.60
2023-01-07T18:24:24.218Z,4.10
2023-01-07T18:29:25.186Z,4.10
2023-01-07T18:34:25.990Z,4.50
2023-01-07T18:39:26.671Z,4.60
2023-01-07T18:44:27.485Z,4.00
2023-01-07T18:49:28.353Z,4.00
2023-01-07T18:54:29.231Z,3.80
2023-01-07T18:59:29.925Z,4.00
2023-01-07T19:04:30.677Z,4.30
2023-01-07T19:09:31.509Z,3.80
2023-01-07T19:14:32.411Z,4.00
2023-01-07T19:19:40.106Z,4.50
2023-01-07T19:24:35.737Z,3.90
2023-01-07T19:29:34.670Z,4.00
2023-01-07T19:34:35.333Z,4.10
2023-01-07T19:39:37.087Z,4.30
2023-01-07T19:44:36.934Z,4.20
2023-01-07T19:49:37.585Z,4.20
2023-01-07T19:54:38.379Z,3.80
2023-01-07T19:59:39.196Z,4.10
2023-01-07T20:04:39.880Z,4.00
2023-01-07T20:09:40.732Z,4.20
2023-01-07T20:14:41.662Z,4.70
2023-01-07T20:19:42.397Z,4.80
2023-01-07T20:24:43.146Z,5.60
2023-01-07T20:29:44.011Z,4.90
2023-01-07T20:34:44.710Z,5.70
2023-01-07T20:39:45.409Z,5.60
2023-01-07T20:44:46.160Z,6.10
2023-01-07T20:49:47.039Z,6.00
2023-01-07T20:54:47.700Z,5.60
2023-01-07T20:59:48.436Z,5.40
2023-01-07T21:04:49.152Z,5.50
2023-01-07T21:09:49.964Z,5.00
2023-01-07T21:14:50.609Z,5.50
2023-01-07T21:19:51.339Z,5.40
2023-01-07T21:24:52.049Z,5.50
2023-01-07T21:29:52.908Z,5.40
2023-01-07T21:34:53.623Z,5.40
2023-01-07T21:39:54.370Z,5.10
2023-01-07T21:44:55.096Z,5.10
2023-01-07T21:49:55.918Z,5.00
2023-01-07T21:54:56.623Z,5.20
2023-01-07T21:59:57.342Z,5.40
2023-01-07T22:04:58.095Z,5.70
2023-01-07T22:09:59.000Z,5.20
2023-01-07T22:14:59.657Z,5.20
2023-01-07T22:20:00.375Z,5.30
2023-01-07T22:25:01.121Z,5.10
2023-01-07T22:30:01.884Z,5.20
2023-01-07T22:35:02.641Z,4.90
2023-01-07T22:40:03.361Z,4.80
2023-01-07T22:45:04.203Z,4.60
2023-01-07T22:50:04.885Z,4.50
2023-01-07T22:55:05.587Z,4.70
2023-01-07T23:00:06.422Z,4.70
2023-01-07T23:05:07.097Z,4.90
2023-01-07T23:10:07.806Z,4.60
2023-01-07T23:15:08.648Z,4.70
2023-01-07T23:20:09.340Z,4.90
2023-01-07T23:25:10.136Z,4.50
2023-01-07T23:30:10.961Z,4.50
2023-01-07T23:35:11.713Z,4.80
2023-01-07T23:40:12.431Z,4.60
2023-01-07T23:45:13.248Z,4.80
2023-01-07T23:50:13.947Z,5.10
2023-01-07T23:55:14.747Z,4.90
